PRIVATE WETTERSTATION BILLIGHEIM-ALLFELD                       ZURCK
Wetterdaten: Samstag, 19.04.2014
Datum Zeit Temp. A. Temp. A. min Temp. A. max Feuchte A. Luftdruck Regen Wind Richtung Richtung Sonnenschein ET Solar Taupunkt Windchill Windben Empfang
19.04.2014 00:00 3,6 C 3,6 C 3,8 C 87 % 1013,8 hPa 0,0 l/m 0,0 km/h (0 Bft) O-SO 105 0 min 0,000 mm 0 W/m 1,6 C 3,6 C 1,6 km/h (1 Bft) 100 %
19.04.2014 00:10 3,7 C 3,6 C 3,7 C 87 % 1013,6 hPa 0,0 l/m 0,1 km/h (0 Bft) O 90 0 min 0,000 mm 0 W/m 1,7 C 3,7 C 3,2 km/h (1 Bft) 90 %
19.04.2014 00:20 3,8 C 3,7 C 3,8 C 87 % 1013,6 hPa 0,0 l/m 0,0 km/h (0 Bft) O 90 0 min 0,000 mm 0 W/m 1,8 C 3,8 C 0,0 km/h (0 Bft) 100 %
19.04.2014 00:30 3,6 C 3,6 C 3,8 C 87 % 1013,6 hPa 0,0 l/m 0,3 km/h (0 Bft) O 92 0 min 0,000 mm 0 W/m 1,6 C 3,6 C 3,2 km/h (1 Bft) 100 %
19.04.2014 00:40 3,3 C 3,3 C 3,6 C 87 % 1013,5 hPa 0,0 l/m 0,0 km/h (0 Bft) O 92 0 min 0,000 mm 0 W/m 1,3 C 3,3 C 0,0 km/h (0 Bft) 100 %
19.04.2014 00:50 3,1 C 3,1 C 3,3 C 87 % 1013,3 hPa 0,0 l/m 0,1 km/h (0 Bft) O 92 0 min 0,000 mm 0 W/m 1,2 C 3,1 C 3,2 km/h (1 Bft) 100 %
19.04.2014 01:00 2,9 C 2,9 C 3,1 C 87 % 1013,3 hPa 0,0 l/m 0,2 km/h (0 Bft) O 89 0 min 0,000 mm 0 W/m 1,0 C 2,9 C 3,2 km/h (1 Bft) 100 %
19.04.2014 01:10 2,8 C 2,8 C 2,9 C 87 % 1013,5 hPa 0,0 l/m 0,1 km/h (0 Bft) O 89 0 min 0,000 mm 0 W/m 0,9 C 2,8 C 3,2 km/h (1 Bft) 100 %
19.04.2014 01:20 2,8 C 2,8 C 2,8 C 87 % 1013,5 hPa 0,0 l/m 0,0 km/h (0 Bft) O 89 0 min 0,000 mm 0 W/m 0,9 C 2,8 C 0,0 km/h (0 Bft) 100 %
19.04.2014 01:30 2,7 C 2,7 C 2,8 C 87 % 1013,4 hPa 0,0 l/m 0,1 km/h (0 Bft) O 89 0 min 0,000 mm 0 W/m 0,8 C 2,7 C 1,6 km/h (1 Bft) 100 %
19.04.2014 01:40 2,7 C 2,7 C 2,7 C 87 % 1013,6 hPa 0,0 l/m 0,0 km/h (0 Bft) O 89 0 min 0,000 mm 0 W/m 0,8 C 2,7 C 1,6 km/h (1 Bft) 100 %
19.04.2014 01:50 2,5 C 2,4 C 2,7 C 87 % 1013,8 hPa 0,0 l/m 0,0 km/h (0 Bft) O 89 0 min 0,000 mm 0 W/m 0,6 C 2,5 C 0,0 km/h (0 Bft) 100 %
19.04.2014 02:00 2,3 C 2,3 C 2,5 C 87 % 1013,8 hPa 0,0 l/m 0,0 km/h (0 Bft) O 89 0 min 0,000 mm 0 W/m 0,4 C 2,3 C 0,0 km/h (0 Bft) 100 %
19.04.2014 02:10 2,2 C 2,2 C 2,3 C 87 % 1013,7 hPa 0,0 l/m 0,1 km/h (0 Bft) O 89 0 min 0,000 mm 0 W/m 0,3 C 2,2 C 1,6 km/h (1 Bft) 99 %
19.04.2014 02:20 2,3 C 2,2 C 2,3 C 87 % 1013,5 hPa 0,0 l/m 0,1 km/h (0 Bft) O 89 0 min 0,000 mm 0 W/m 0,4 C 2,3 C 1,6 km/h (1 Bft) 100 %
19.04.2014 02:30 2,3 C 2,3 C 2,3 C 87 % 1013,3 hPa 0,0 l/m 0,4 km/h (0 Bft) O 89 0 min 0,000 mm 0 W/m 0,4 C 2,3 C 3,2 km/h (1 Bft) 94 %
19.04.2014 02:40 2,3 C 2,3 C 2,3 C 87 % 1013,1 hPa 0,0 l/m 0,1 km/h (0 Bft) O 88 0 min 0,000 mm 0 W/m 0,4 C 2,3 C 1,6 km/h (1 Bft) 97 %
19.04.2014 02:50 2,4 C 2,3 C 2,4 C 87 % 1013,1 hPa 0,0 l/m 0,3 km/h (0 Bft) O 86 0 min 0,000 mm 0 W/m 0,5 C 2,4 C 3,2 km/h (1 Bft) 99 %
19.04.2014 03:00 2,3 C 2,3 C 2,4 C 87 % 1013,0 hPa 0,0 l/m 0,0 km/h (0 Bft) O 86 0 min 0,000 mm 0 W/m 0,4 C 2,3 C 1,6 km/h (1 Bft) 100 %
19.04.2014 03:10 2,2 C 2,2 C 2,3 C 87 % 1013,0 hPa 0,0 l/m 0,0 km/h (0 Bft) O 86 0 min 0,000 mm 0 W/m 0,3 C 2,2 C 0,0 km/h (0 Bft) 99 %
19.04.2014 03:20 2,1 C 2,1 C 2,3 C 87 % 1013,1 hPa 0,0 l/m 0,0 km/h (0 Bft) O 86 0 min 0,000 mm 0 W/m 0,2 C 2,1 C 0,0 km/h (0 Bft) 91 %
19.04.2014 03:30 2,1 C 2,1 C 2,1 C 87 % 1013,2 hPa 0,0 l/m 0,0 km/h (0 Bft) O 86 0 min 0,000 mm 0 W/m 0,2 C 2,1 C 0,0 km/h (0 Bft) 100 %
19.04.2014 03:40 2,2 C 2,1 C 2,2 C 87 % 1013,1 hPa 0,0 l/m 0,0 km/h (0 Bft) O 86 0 min 0,000 mm 0 W/m 0,3 C 2,2 C 0,0 km/h (0 Bft) 99 %
19.04.2014 03:50 2,2 C 2,2 C 2,2 C 87 % 1013,0 hPa 0,0 l/m 0,0 km/h (0 Bft) O 86 0 min 0,000 mm 0 W/m 0,3 C 2,2 C 0,0 km/h (0 Bft) 100 %
19.04.2014 04:00 2,3 C 2,2 C 2,3 C 87 % 1012,9 hPa 0,0 l/m 0,0 km/h (0 Bft) O 86 0 min 0,000 mm 0 W/m 0,4 C 2,3 C 0,0 km/h (0 Bft) 100 %
19.04.2014 04:10 2,3 C 2,3 C 2,3 C 87 % 1013,1 hPa 0,0 l/m 0,0 km/h (0 Bft) O 86 0 min 0,000 mm 0 W/m 0,4 C 2,3 C 0,0 km/h (0 Bft) 100 %
19.04.2014 04:20 2,4 C 2,3 C 2,4 C 87 % 1013,1 hPa 0,0 l/m 0,0 km/h (0 Bft) O 86 0 min 0,000 mm 0 W/m 0,5 C 2,4 C 0,0 km/h (0 Bft) 100 %
19.04.2014 04:30 2,5 C 2,4 C 2,5 C 87 % 1013,1 hPa 0,0 l/m 0,0 km/h (0 Bft) O 86 0 min 0,000 mm 0 W/m 0,6 C 2,5 C 0,0 km/h (0 Bft) 99 %
19.04.2014 04:40 2,6 C 2,5 C 2,6 C 87 % 1013,1 hPa 0,0 l/m 0,0 km/h (0 Bft) O 86 0 min 0,000 mm 0 W/m 0,7 C 2,6 C 0,0 km/h (0 Bft) 100 %
19.04.2014 04:50 2,6 C 2,6 C 2,6 C 87 % 1013,1 hPa 0,0 l/m 0,0 km/h (0 Bft) O 86 0 min 0,000 mm 0 W/m 0,7 C 2,6 C 0,0 km/h (0 Bft) 99 %
19.04.2014 05:00 2,6 C 2,6 C 2,6 C 87 % 1013,2 hPa 0,0 l/m 0,0 km/h (0 Bft) O 86 0 min 0,000 mm 0 W/m 0,7 C 2,6 C 0,0 km/h (0 Bft) 100 %
19.04.2014 05:10 2,6 C 2,6 C 2,6 C 87 % 1013,1 hPa 0,0 l/m 0,0 km/h (0 Bft) O 86 0 min 0,000 mm 0 W/m 0,7 C 2,6 C 0,0 km/h (0 Bft) 100 %
19.04.2014 05:20 2,7 C 2,6 C 2,7 C 87 % 1013,1 hPa 0,0 l/m 0,0 km/h (0 Bft) O 86 0 min 0,000 mm 0 W/m 0,8 C 2,7 C 0,0 km/h (0 Bft) 100 %
19.04.2014 05:30 2,7 C 2,7 C 2,7 C 87 % 1013,0 hPa 0,0 l/m 0,0 km/h (0 Bft) O 86 0 min 0,000 mm 0 W/m 0,8 C 2,7 C 0,0 km/h (0 Bft) 100 %
19.04.2014 05:40 2,7 C 2,7 C 2,7 C 87 % 1013,1 hPa 0,0 l/m 0,0 km/h (0 Bft) O 86 0 min 0,000 mm 0 W/m 0,8 C 2,7 C 0,0 km/h (0 Bft) 100 %
19.04.2014 05:50 2,7 C 2,7 C 2,7 C 87 % 1013,0 hPa 0,0 l/m 0,0 km/h (0 Bft) O 86 0 min 0,000 mm 0 W/m 0,8 C 2,7 C 0,0 km/h (0 Bft) 99 %
19.04.2014 06:00 2,7 C 2,7 C 2,7 C 87 % 1013,0 hPa 0,0 l/m 0,0 km/h (0 Bft) O 86 0 min 0,000 mm 0 W/m 0,8 C 2,7 C 0,0 km/h (0 Bft) 100 %
19.04.2014 06:10 2,8 C 2,7 C 2,8 C 87 % 1013,0 hPa 0,0 l/m 0,0 km/h (0 Bft) O 86 0 min 0,000 mm 0 W/m 0,9 C 2,8 C 0,0 km/h (0 Bft) 100 %
19.04.2014 06:20 2,9 C 2,8 C 2,9 C 87 % 1013,0 hPa 0,0 l/m 0,0 km/h (0 Bft) O 86 0 min 0,000 mm 0 W/m 1,0 C 2,9 C 0,0 km/h (0 Bft) 100 %
19.04.2014 06:30 3,0 C 2,9 C 3,0 C 87 % 1013,0 hPa 0,0 l/m 0,0 km/h (0 Bft) O 86 0 min 0,000 mm 0 W/m 1,1 C 3,0 C 0,0 km/h (0 Bft) 100 %
19.04.2014 06:40 3,1 C 3,0 C 3,1 C 87 % 1013,1 hPa 0,0 l/m 0,0 km/h (0 Bft) O 86 0 min 0,000 mm 5 W/m 1,2 C 3,1 C 0,0 km/h (0 Bft) 100 %
19.04.2014 06:50 3,2 C 3,1 C 3,2 C 87 % 1013,2 hPa 0,0 l/m 0,0 km/h (0 Bft) O 86 0 min 0,000 mm 19 W/m 1,2 C 3,2 C 0,0 km/h (0 Bft) 100 %
19.04.2014 07:00 3,3 C 3,2 C 3,3 C 87 % 1013,3 hPa 0,0 l/m 0,0 km/h (0 Bft) O 86 0 min 0,000 mm 12 W/m 1,3 C 3,3 C 0,0 km/h (0 Bft) 100 %
19.04.2014 07:10 3,4 C 3,3 C 3,4 C 87 % 1013,5 hPa 0,0 l/m 0,0 km/h (0 Bft) O 86 0 min 0,000 mm 23 W/m 1,4 C 3,4 C 0,0 km/h (0 Bft) 99 %
19.04.2014 07:20 3,5 C 3,4 C 3,5 C 87 % 1013,5 hPa 0,0 l/m 0,0 km/h (0 Bft) O 86 0 min 0,000 mm 26 W/m 1,5 C 3,5 C 0,0 km/h (0 Bft) 91 %
19.04.2014 07:30 3,6 C 3,5 C 3,6 C 88 % 1013,4 hPa 0,0 l/m 0,3 km/h (0 Bft) NW 323 0 min 0,000 mm 25 W/m 1,8 C 3,6 C 4,8 km/h (1 Bft) 99 %
19.04.2014 07:40 3,6 C 3,6 C 3,6 C 88 % 1013,5 hPa 0,0 l/m 0,1 km/h (0 Bft) NW 323 0 min 0,000 mm 28 W/m 1,8 C 3,6 C 3,2 km/h (1 Bft) 100 %
19.04.2014 07:50 3,7 C 3,6 C 3,7 C 87 % 1013,4 hPa 0,0 l/m 0,0 km/h (0 Bft) NW 323 0 min 0,000 mm 19 W/m 1,7 C 3,7 C 1,6 km/h (1 Bft) 98 %
19.04.2014 08:00 3,7 C 3,7 C 3,7 C 88 % 1013,5 hPa 0,0 l/m 0,1 km/h (0 Bft) N 355 0 min 0,000 mm 25 W/m 1,9 C 3,7 C 3,2 km/h (1 Bft) 99 %
19.04.2014 08:10 3,7 C 3,7 C 3,7 C 88 % 1013,5 hPa 0,0 l/m 0,3 km/h (0 Bft) N-NW 348 0 min 0,000 mm 30 W/m 1,9 C 3,7 C 3,2 km/h (1 Bft) 100 %
19.04.2014 08:20 3,7 C 3,7 C 3,7 C 88 % 1013,6 hPa 0,0 l/m 0,2 km/h (0 Bft) NO 41 0 min 0,000 mm 32 W/m 1,9 C 3,7 C 4,8 km/h (1 Bft) 100 %
19.04.2014 08:30 3,8 C 3,7 C 3,8 C 88 % 1013,8 hPa 0,0 l/m 0,1 km/h (0 Bft) O-SO 123 0 min 0,000 mm 44 W/m 2,0 C 3,8 C 3,2 km/h (1 Bft) 98 %
19.04.2014 08:40 3,9 C 3,8 C 3,9 C 88 % 1013,7 hPa 0,0 l/m 0,6 km/h (0 Bft) W 281 0 min 0,000 mm 102 W/m 2,1 C 3,9 C 4,8 km/h (1 Bft) 99 %
19.04.2014 08:50 4,1 C 3,9 C 4,1 C 88 % 1013,9 hPa 0,0 l/m 0,8 km/h (0 Bft) N-NO 15 0 min 0,000 mm 84 W/m 2,3 C 4,1 C 4,8 km/h (1 Bft) 100 %
19.04.2014 09:00 4,2 C 4,1 C 4,2 C 88 % 1013,7 hPa 0,0 l/m 0,4 km/h (0 Bft) N-NO 20 10 min 0,025 mm 169 W/m 2,4 C 4,2 C 3,2 km/h (1 Bft) 100 %
19.04.2014 09:10 4,5 C 4,2 C 4,5 C 88 % 1013,7 hPa 0,0 l/m 0,9 km/h (0 Bft) W-NW 299 10 min 0,000 mm 155 W/m 2,7 C 4,5 C 4,8 km/h (1 Bft) 100 %
19.04.2014 09:20 4,7 C 4,5 C 4,7 C 88 % 1013,6 hPa 0,0 l/m 0,7 km/h (0 Bft) NO 41 0 min 0,000 mm 139 W/m 2,9 C 4,7 C 6,4 km/h (2 Bft) 99 %
19.04.2014 09:30 4,9 C 4,7 C 4,9 C 87 % 1013,7 hPa 0,0 l/m 0,4 km/h (0 Bft) O-NO 59 10 min 0,000 mm 171 W/m 2,9 C 4,9 C 4,8 km/h (1 Bft) 100 %
19.04.2014 09:40 5,1 C 4,9 C 5,1 C 87 % 1013,5 hPa 0,0 l/m 0,8 km/h (0 Bft) N 355 10 min 0,000 mm 183 W/m 3,1 C 5,1 C 6,4 km/h (2 Bft) 100 %
19.04.2014 09:50 5,4 C 5,1 C 5,4 C 87 % 1013,5 hPa 0,0 l/m 1,1 km/h (1 Bft) NO 34 10 min 0,000 mm 323 W/m 3,4 C 5,4 C 6,4 km/h (2 Bft) 100 %
19.04.2014 10:00 5,9 C 5,4 C 5,9 C 85 % 1013,6 hPa 0,0 l/m 1,1 km/h (1 Bft) NO 45 10 min 0,000 mm 397 W/m 3,6 C 5,9 C 6,4 km/h (2 Bft) 100 %
19.04.2014 10:11 6,7 C 5,9 C 6,7 C 85 % 1013,5 hPa 0,0 l/m 0,8 km/h (0 Bft) N-NO 24 11 min 0,076 mm 536 W/m 4,4 C 6,7 C 4,8 km/h (1 Bft) 100 %
19.04.2014 10:20 7,3 C 6,7 C 7,3 C 81 % 1013,5 hPa 0,0 l/m 0,9 km/h (0 Bft) N-NW 338 9 min 0,001 mm 550 W/m 4,3 C 7,3 C 6,4 km/h (2 Bft) 100 %
19.04.2014 10:30 7,8 C 7,3 C 7,8 C 80 % 1013,4 hPa 0,0 l/m 1,1 km/h (1 Bft) NO 40 10 min 0,000 mm 527 W/m 4,6 C 7,8 C 6,4 km/h (2 Bft) 91 %
19.04.2014 10:40 8,1 C 7,8 C 8,1 C 79 % 1013,5 hPa 0,0 l/m 0,9 km/h (0 Bft) W-SW 249 10 min 0,000 mm 459 W/m 4,7 C 8,1 C 6,4 km/h (2 Bft) 100 %
19.04.2014 10:50 8,2 C 8,1 C 8,2 C 79 % 1013,5 hPa 0,0 l/m 1,7 km/h (1 Bft) N-NO 31 10 min 0,000 mm 589 W/m 4,8 C 8,2 C 6,4 km/h (2 Bft) 100 %
19.04.2014 11:00 8,3 C 8,2 C 8,3 C 77 % 1013,5 hPa 0,0 l/m 0,9 km/h (0 Bft) N 5 10 min 0,203 mm 299 W/m 4,5 C 8,3 C 4,8 km/h (1 Bft) 100 %
19.04.2014 11:10 8,6 C 8,3 C 8,7 C 75 % 1013,5 hPa 0,0 l/m 2,9 km/h (1 Bft) NO 51 10 min 0,000 mm 791 W/m 4,4 C 8,6 C 12,9 km/h (3 Bft) 100 %
19.04.2014 11:20 9,2 C 8,6 C 9,2 C 75 % 1013,3 hPa 0,0 l/m 0,9 km/h (0 Bft) NO 44 10 min 0,000 mm 761 W/m 5,0 C 9,2 C 9,7 km/h (2 Bft) 100 %
19.04.2014 11:30 9,8 C 9,2 C 9,8 C 73 % 1013,3 hPa 0,0 l/m 2,0 km/h (1 Bft) O-NO 59 10 min 0,000 mm 786 W/m 5,2 C 9,8 C 11,3 km/h (2 Bft) 100 %
19.04.2014 11:40 9,7 C 9,7 C 10,0 C 71 % 1013,2 hPa 0,0 l/m 1,5 km/h (1 Bft) NW 312 10 min 0,000 mm 309 W/m 4,7 C 9,7 C 9,7 km/h (2 Bft) 100 %
19.04.2014 11:50 9,3 C 9,3 C 9,7 C 73 % 1013,2 hPa 0,0 l/m 1,7 km/h (1 Bft) N-NO 26 10 min 0,000 mm 431 W/m 4,7 C 9,3 C 17,7 km/h (3 Bft) 100 %
19.04.2014 12:00 9,4 C 9,3 C 9,4 C 72 % 1013,1 hPa 0,0 l/m 2,2 km/h (1 Bft) NO 40 10 min 0,279 mm 526 W/m 4,6 C 9,4 C 9,7 km/h (2 Bft) 100 %
19.04.2014 12:10 9,7 C 9,4 C 9,8 C 73 % 1013,1 hPa 0,0 l/m 1,7 km/h (1 Bft) N-NW 328 10 min 0,000 mm 584 W/m 5,1 C 9,7 C 9,7 km/h (2 Bft) 100 %
19.04.2014 12:20 10,2 C 9,7 C 10,2 C 72 % 1012,9 hPa 0,0 l/m 1,2 km/h (1 Bft) NO 38 10 min 0,000 mm 490 W/m 5,4 C 10,2 C 8,0 km/h (2 Bft) 100 %
19.04.2014 12:30 10,6 C 10,2 C 10,6 C 71 % 1012,7 hPa 0,0 l/m 0,8 km/h (0 Bft) NW 306 10 min 0,000 mm 288 W/m 5,6 C 10,6 C 8,0 km/h (2 Bft) 100 %
19.04.2014 12:40 10,8 C 10,6 C 10,8 C 72 % 1012,7 hPa 0,0 l/m 2,2 km/h (1 Bft) S-SO 167 10 min 0,000 mm 844 W/m 6,0 C 10,8 C 11,3 km/h (2 Bft) 100 %
19.04.2014 12:50 10,9 C 10,7 C 10,9 C 70 % 1012,4 hPa 0,0 l/m 0,8 km/h (0 Bft) N 10 10 min 0,000 mm 374 W/m 5,6 C 10,9 C 6,4 km/h (2 Bft) 100 %
19.04.2014 13:00 11,7 C 10,9 C 11,7 C 69 % 1012,2 hPa 0,0 l/m 0,9 km/h (0 Bft) N-NO 25 10 min 0,280 mm 874 W/m 6,2 C 11,7 C 8,0 km/h (2 Bft) 100 %
19.04.2014 13:10 12,2 C 11,7 C 12,2 C 68 % 1012,2 hPa 0,0 l/m 1,7 km/h (1 Bft) N 355 10 min 0,000 mm 831 W/m 6,5 C 12,2 C 11,3 km/h (2 Bft) 100 %
19.04.2014 13:20 12,9 C 12,2 C 12,9 C 66 % 1012,0 hPa 0,0 l/m 3,6 km/h (1 Bft) N-NO 19 10 min 0,000 mm 809 W/m 6,7 C 12,9 C 14,5 km/h (3 Bft) 100 %
19.04.2014 13:30 13,2 C 12,9 C 13,2 C 65 % 1011,8 hPa 0,0 l/m 1,7 km/h (1 Bft) N-NW 340 10 min 0,000 mm 956 W/m 6,8 C 13,2 C 14,5 km/h (3 Bft) 99 %
19.04.2014 13:40 13,6 C 13,2 C 13,6 C 62 % 1011,9 hPa 0,0 l/m 1,2 km/h (1 Bft) NO 42 10 min 0,000 mm 366 W/m 6,5 C 13,6 C 8,0 km/h (2 Bft) 100 %
19.04.2014 13:50 13,8 C 13,6 C 13,8 C 64 % 1011,6 hPa 0,0 l/m 1,7 km/h (1 Bft) O-NO 78 10 min 0,000 mm 840 W/m 7,1 C 13,8 C 17,7 km/h (3 Bft) 91 %
19.04.2014 14:00 14,1 C 13,8 C 14,1 C 63 % 1011,4 hPa 0,0 l/m 3,6 km/h (1 Bft) O-SO 122 10 min 0,381 mm 784 W/m 7,2 C 14,1 C 19,3 km/h (3 Bft) 100 %
19.04.2014 14:11 14,8 C 14,1 C 14,8 C 64 % 1011,0 hPa 0,0 l/m 1,1 km/h (1 Bft) O-NO 69 11 min 0,000 mm 814 W/m 8,1 C 14,8 C 11,3 km/h (2 Bft) 100 %
19.04.2014 14:20 14,9 C 14,8 C 15,0 C 60 % 1010,9 hPa 0,0 l/m 2,8 km/h (1 Bft) N-NO 15 9 min 0,000 mm 742 W/m 7,2 C 14,9 C 16,1 km/h (3 Bft) 100 %
19.04.2014 14:30 14,8 C 14,8 C 15,0 C 59 % 1010,7 hPa 0,0 l/m 3,1 km/h (1 Bft) O-NO 63 10 min 0,000 mm 744 W/m 6,9 C 14,8 C 20,9 km/h (4 Bft) 100 %
19.04.2014 14:40 14,9 C 14,7 C 14,9 C 60 % 1010,7 hPa 0,0 l/m 2,4 km/h (1 Bft) N-NW 338 10 min 0,000 mm 745 W/m 7,2 C 14,9 C 12,9 km/h (3 Bft) 100 %
19.04.2014 14:50 15,4 C 14,9 C 15,4 C 60 % 1010,6 hPa 0,0 l/m 2,0 km/h (1 Bft) O 81 10 min 0,000 mm 809 W/m 7,7 C 15,4 C 16,1 km/h (3 Bft) 100 %
19.04.2014 15:00 15,9 C 15,4 C 15,9 C 58 % 1010,6 hPa 0,0 l/m 2,2 km/h (1 Bft) NO 44 10 min 0,355 mm 301 W/m 7,6 C 15,9 C 16,1 km/h (3 Bft) 99 %
19.04.2014 15:10 15,4 C 15,4 C 15,9 C 62 % 1010,3 hPa 0,0 l/m 2,8 km/h (1 Bft) O-SO 117 10 min 0,000 mm 698 W/m 8,2 C 15,4 C 19,3 km/h (3 Bft) 100 %
19.04.2014 15:20 16,0 C 15,4 C 16,0 C 59 % 1010,2 hPa 0,0 l/m 2,6 km/h (1 Bft) SO 126 10 min 0,000 mm 710 W/m 8,0 C 16,0 C 20,9 km/h (4 Bft) 100 %
19.04.2014 15:30 16,2 C 16,0 C 16,2 C 57 % 1009,9 hPa 0,0 l/m 3,7 km/h (1 Bft) NO 40 10 min 0,000 mm 668 W/m 7,7 C 16,2 C 19,3 km/h (3 Bft) 100 %
19.04.2014 15:40 16,4 C 16,2 C 16,4 C 58 % 1009,8 hPa 0,0 l/m 1,8 km/h (1 Bft) N-NO 27 10 min 0,000 mm 677 W/m 8,1 C 16,4 C 12,9 km/h (3 Bft) 99 %
19.04.2014 15:50 16,6 C 16,4 C 16,6 C 57 % 1009,7 hPa 0,0 l/m 2,0 km/h (1 Bft) O 88 10 min 0,000 mm 628 W/m 8,0 C 16,6 C 9,7 km/h (2 Bft) 100 %
19.04.2014 16:00 16,7 C 16,6 C 16,7 C 57 % 1009,5 hPa 0,0 l/m 1,1 km/h (1 Bft) N 355 10 min 0,330 mm 605 W/m 8,1 C 16,7 C 9,7 km/h (2 Bft) 100 %
19.04.2014 16:10 16,9 C 16,7 C 16,9 C 60 % 1009,5 hPa 0,0 l/m 1,4 km/h (1 Bft) NW 319 10 min 0,000 mm 668 W/m 9,1 C 16,9 C 14,5 km/h (3 Bft) 100 %
19.04.2014 16:20 16,6 C 16,6 C 16,9 C 56 % 1009,3 hPa 0,0 l/m 1,0 km/h (0 Bft) N-NO 30 10 min 0,000 mm 234 W/m 7,8 C 16,6 C 9,7 km/h (2 Bft) 100 %
19.04.2014 16:30 16,4 C 16,4 C 16,6 C 60 % 1009,2 hPa 0,0 l/m 1,2 km/h (1 Bft) S 182 10 min 0,000 mm 279 W/m 8,6 C 16,4 C 9,7 km/h (2 Bft) 100 %
19.04.2014 16:40 16,6 C 16,4 C 16,6 C 59 % 1009,2 hPa 0,0 l/m 1,2 km/h (1 Bft) NO 34 10 min 0,000 mm 211 W/m 8,6 C 16,6 C 9,7 km/h (2 Bft) 100 %
19.04.2014 16:50 16,2 C 16,2 C 16,6 C 60 % 1009,1 hPa 0,0 l/m 0,8 km/h (0 Bft) NW 315 10 min 0,000 mm 281 W/m 8,4 C 16,2 C 8,0 km/h (2 Bft) 100 %
19.04.2014 17:00 16,6 C 16,2 C 16,6 C 58 % 1009,0 hPa 0,0 l/m 1,3 km/h (1 Bft) NO 55 10 min 0,204 mm 471 W/m 8,3 C 16,6 C 11,3 km/h (2 Bft) 100 %
19.04.2014 17:10 16,9 C 16,6 C 16,9 C 59 % 1009,0 hPa 0,0 l/m 0,7 km/h (0 Bft) NO 36 10 min 0,000 mm 397 W/m 8,8 C 16,9 C 6,4 km/h (2 Bft) 100 %
19.04.2014 17:20 16,6 C 16,6 C 16,9 C 59 % 1008,9 hPa 0,0 l/m 1,2 km/h (1 Bft) O-NO 76 0 min 0,000 mm 120 W/m 8,6 C 16,6 C 12,9 km/h (3 Bft) 100 %
19.04.2014 17:30 16,3 C 16,3 C 16,6 C 61 % 1008,8 hPa 0,0 l/m 0,3 km/h (0 Bft) N-NW 327 0 min 0,000 mm 109 W/m 8,8 C 16,3 C 4,8 km/h (1 Bft) 100 %
19.04.2014 17:40 16,2 C 16,2 C 16,3 C 61 % 1008,9 hPa 0,0 l/m 1,3 km/h (1 Bft) NO 45 0 min 0,000 mm 121 W/m 8,7 C 16,2 C 16,1 km/h (3 Bft) 100 %
19.04.2014 17:50 16,2 C 16,1 C 16,2 C 61 % 1008,7 hPa 0,0 l/m 1,1 km/h (1 Bft) NO 40 0 min 0,000 mm 118 W/m 8,7 C 16,2 C 8,0 km/h (2 Bft) 100 %
19.04.2014 18:00 16,3 C 16,2 C 16,3 C 62 % 1008,8 hPa 0,0 l/m 0,4 km/h (0 Bft) NO 34 0 min 0,101 mm 97 W/m 9,0 C 16,3 C 6,4 km/h (2 Bft) 100 %
19.04.2014 18:10 16,2 C 16,2 C 16,3 C 61 % 1008,7 hPa 0,0 l/m 0,7 km/h (0 Bft) NO 38 0 min 0,000 mm 114 W/m 8,7 C 16,2 C 6,4 km/h (2 Bft) 99 %
19.04.2014 18:20 16,1 C 16,1 C 16,2 C 62 % 1008,7 hPa 0,0 l/m 0,9 km/h (0 Bft) N-NO 22 0 min 0,000 mm 102 W/m 8,8 C 16,1 C 6,4 km/h (2 Bft) 100 %
19.04.2014 18:30 15,9 C 15,9 C 16,1 C 63 % 1008,8 hPa 0,0 l/m 0,8 km/h (0 Bft) NO 40 0 min 0,000 mm 91 W/m 8,9 C 15,9 C 8,0 km/h (2 Bft) 100 %
19.04.2014 18:40 15,7 C 15,7 C 16,0 C 62 % 1008,8 hPa 0,0 l/m 1,0 km/h (0 Bft) NO 34 0 min 0,000 mm 79 W/m 8,4 C 15,7 C 11,3 km/h (2 Bft) 100 %
19.04.2014 18:50 15,5 C 15,5 C 15,7 C 62 % 1008,8 hPa 0,0 l/m 0,5 km/h (0 Bft) NO 39 0 min 0,000 mm 72 W/m 8,3 C 15,5 C 8,0 km/h (2 Bft) 100 %
19.04.2014 19:00 15,3 C 15,3 C 15,5 C 64 % 1008,8 hPa 0,0 l/m 0,7 km/h (0 Bft) NO 45 0 min 0,051 mm 69 W/m 8,5 C 15,3 C 8,0 km/h (2 Bft) 100 %
19.04.2014 19:10 15,1 C 15,1 C 15,3 C 65 % 1008,7 hPa 0,0 l/m 0,3 km/h (0 Bft) NO 37 0 min 0,000 mm 62 W/m 8,6 C 15,1 C 4,8 km/h (1 Bft) 100 %
19.04.2014 19:20 14,7 C 14,7 C 15,1 C 65 % 1008,6 hPa 0,0 l/m 0,7 km/h (0 Bft) N-NO 33 0 min 0,000 mm 53 W/m 8,2 C 14,7 C 8,0 km/h (2 Bft) 100 %
19.04.2014 19:30 14,4 C 14,4 C 14,7 C 66 % 1008,6 hPa 0,0 l/m 0,6 km/h (0 Bft) N-NO 30 0 min 0,000 mm 47 W/m 8,1 C 14,4 C 9,7 km/h (2 Bft) 100 %
19.04.2014 19:40 14,1 C 14,1 C 14,4 C 67 % 1008,6 hPa 0,0 l/m 1,1 km/h (1 Bft) NO 44 0 min 0,000 mm 42 W/m 8,1 C 14,1 C 8,0 km/h (2 Bft) 100 %
19.04.2014 19:50 13,8 C 13,8 C 14,1 C 68 % 1008,6 hPa 0,0 l/m 0,8 km/h (0 Bft) NO 47 0 min 0,000 mm 37 W/m 8,0 C 13,8 C 6,4 km/h (2 Bft) 100 %
19.04.2014 20:00 13,6 C 13,6 C 13,8 C 69 % 1008,5 hPa 0,0 l/m 1,4 km/h (1 Bft) N-NO 26 0 min 0,025 mm 23 W/m 8,0 C 13,6 C 11,3 km/h (2 Bft) 100 %
19.04.2014 20:10 13,3 C 13,3 C 13,6 C 69 % 1008,7 hPa 0,0 l/m 1,3 km/h (1 Bft) O 98 0 min 0,000 mm 11 W/m 7,7 C 13,3 C 11,3 km/h (2 Bft) 100 %
19.04.2014 20:20 12,9 C 12,9 C 13,3 C 70 % 1008,7 hPa 0,0 l/m 1,3 km/h (1 Bft) NO 45 0 min 0,000 mm 5 W/m 7,6 C 12,9 C 9,7 km/h (2 Bft) 100 %
19.04.2014 20:30 12,5 C 12,5 C 12,9 C 71 % 1009,0 hPa 0,0 l/m 0,3 km/h (0 Bft) NO 36 0 min 0,000 mm 0 W/m 7,4 C 12,5 C 6,4 km/h (2 Bft) 100 %
19.04.2014 20:40 12,2 C 12,2 C 12,5 C 72 % 1009,1 hPa 0,0 l/m 0,5 km/h (0 Bft) NO 36 0 min 0,000 mm 0 W/m 7,3 C 12,2 C 6,4 km/h (2 Bft) 100 %
19.04.2014 20:50 11,8 C 11,8 C 12,2 C 73 % 1009,1 hPa 0,0 l/m 2,2 km/h (1 Bft) NO 34 0 min 0,000 mm 0 W/m 7,1 C 11,8 C 14,5 km/h (3 Bft) 100 %
19.04.2014 21:00 11,6 C 11,6 C 11,8 C 74 % 1009,1 hPa 0,0 l/m 1,1 km/h (1 Bft) NO 34 0 min 0,000 mm 0 W/m 7,1 C 11,6 C 24,1 km/h (4 Bft) 100 %
19.04.2014 21:10 11,4 C 11,4 C 11,6 C 75 % 1009,1 hPa 0,0 l/m 0,5 km/h (0 Bft) NO 53 0 min 0,000 mm 0 W/m 7,1 C 11,4 C 6,4 km/h (2 Bft) 100 %
19.04.2014 21:20 11,3 C 11,3 C 11,4 C 76 % 1009,2 hPa 0,0 l/m 0,5 km/h (0 Bft) O-NO 65 0 min 0,000 mm 0 W/m 7,2 C 11,3 C 6,4 km/h (2 Bft) 100 %
19.04.2014 21:30 11,1 C 11,1 C 11,3 C 77 % 1009,2 hPa 0,0 l/m 0,5 km/h (0 Bft) NO 38 0 min 0,000 mm 0 W/m 7,2 C 11,1 C 4,8 km/h (1 Bft) 100 %
19.04.2014 21:40 10,9 C 10,9 C 11,1 C 78 % 1009,3 hPa 0,0 l/m 0,1 km/h (0 Bft) N-NO 14 0 min 0,000 mm 0 W/m 7,2 C 10,9 C 1,6 km/h (1 Bft) 100 %
19.04.2014 21:50 10,9 C 10,9 C 10,9 C 78 % 1009,2 hPa 0,0 l/m 0,2 km/h (0 Bft) NO 37 0 min 0,000 mm 0 W/m 7,2 C 10,9 C 4,8 km/h (1 Bft) 100 %
19.04.2014 22:00 10,8 C 10,8 C 10,9 C 79 % 1009,3 hPa 0,0 l/m 0,3 km/h (0 Bft) NO 35 0 min 0,026 mm 0 W/m 7,3 C 10,8 C 4,8 km/h (1 Bft) 100 %
19.04.2014 22:10 10,7 C 10,7 C 10,8 C 79 % 1009,1 hPa 0,0 l/m 0,5 km/h (0 Bft) N-NO 20 0 min 0,000 mm 0 W/m 7,2 C 10,7 C 6,4 km/h (2 Bft) 100 %
19.04.2014 22:20 10,6 C 10,6 C 10,7 C 80 % 1009,0 hPa 0,0 l/m 0,3 km/h (0 Bft) NO 43 0 min 0,000 mm 0 W/m 7,3 C 10,6 C 6,4 km/h (2 Bft) 100 %
19.04.2014 22:30 10,4 C 10,4 C 10,6 C 80 % 1009,0 hPa 0,0 l/m 0,3 km/h (0 Bft) NO 51 0 min 0,000 mm 0 W/m 7,1 C 10,4 C 4,8 km/h (1 Bft) 100 %
19.04.2014 22:40 10,3 C 10,3 C 10,4 C 81 % 1008,9 hPa 0,0 l/m 0,1 km/h (0 Bft) N-NO 26 0 min 0,000 mm 0 W/m 7,2 C 10,3 C 3,2 km/h (1 Bft) 91 %
19.04.2014 22:50 10,2 C 10,2 C 10,3 C 81 % 1008,9 hPa 0,0 l/m 0,3 km/h (0 Bft) N-NO 28 0 min 0,000 mm 0 W/m 7,1 C 10,2 C 3,2 km/h (1 Bft) 100 %
19.04.2014 23:00 10,1 C 10,1 C 10,2 C 81 % 1008,9 hPa 0,0 l/m 0,1 km/h (0 Bft) N-NO 31 0 min 0,025 mm 0 W/m 7,0 C 10,1 C 3,2 km/h (1 Bft) 100 %
19.04.2014 23:10 9,9 C 9,9 C 10,1 C 82 % 1008,9 hPa 0,0 l/m 0,2 km/h (0 Bft) W-NW 293 0 min 0,000 mm 0 W/m 7,0 C 9,9 C 4,8 km/h (1 Bft) 100 %
19.04.2014 23:20 9,8 C 9,8 C 9,9 C 83 % 1008,9 hPa 0,0 l/m 0,1 km/h (0 Bft) N 5 0 min 0,000 mm 0 W/m 7,1 C 9,8 C 3,2 km/h (1 Bft) 100 %
19.04.2014 23:30 9,7 C 9,7 C 9,8 C 83 % 1008,8 hPa 0,0 l/m 0,0 km/h (0 Bft) N 5 0 min 0,000 mm 0 W/m 7,0 C 9,7 C 1,6 km/h (1 Bft) 100 %
19.04.2014 23:40 9,8 C 9,7 C 9,8 C 84 % 1008,6 hPa 0,0 l/m 0,1 km/h (0 Bft) N-NO 27 0 min 0,000 mm 0 W/m 7,2 C 9,8 C 3,2 km/h (1 Bft) 100 %
19.04.2014 23:50 9,9 C 9,8 C 9,9 C 83 % 1008,4 hPa 0,0 l/m 0,1 km/h (0 Bft) N 9 0 min 0,000 mm 0 W/m 7,2 C 9,9 C 3,2 km/h (1 Bft) 100 %
_ Min-Zeit 03:20 03:20 03:30 16:20 23:50 - 00:00 - - - - - 03:20 03:20 00:20 00:10
Minimum _ 2,1 C 2,1 C 2,1 C 56 % 1008,4 hPa - 0,0 km/h (0 Bft) - - - - - 0,2 C 2,1 C 0,0 km/h (0 Bft) 90 %
_ Max-Zeit 16:10 16:10 16:10 07:30 08:50 00:00 15:30 - - 10:11 14:00 13:30 16:10 16:10 21:00 00:00
Maximum _ 16,9 C 16,7 C 16,9 C 88 % 1013,9 hPa 0,0 l/m 3,7 km/h
NO (1 Bft)
- - 11 min 0,381 mm 956 W/m 9,1 C 16,9 C 24,1 km/h
O (4 Bft)
100 %
Durchschnitt _ 8,7 C 8,6 C 8,8 C 77 % 1011,6 hPa #0,0 l/m 0,8 km/h (0 Bft) NO - #8:10 h #2,362 mm 345 W/m 4,6 C 8,7 C 6,2 km/h (2 Bft) 99 %
PRIVATE WETTERSTATION BILLIGHEIM-ALLFELD - www.neckar-odenwald-wetter.de - Holger Sonntag